createdAt,value
2022-09-07T00:00:08.085Z,82.70
2022-09-07T00:02:35.771Z,82.66
2022-09-07T00:05:03.574Z,82.86
2022-09-07T00:07:31.729Z,82.63
2022-09-07T00:09:59.354Z,82.79
2022-09-07T00:12:26.980Z,83.11
2022-09-07T00:14:54.837Z,83.07
2022-09-07T00:17:23.831Z,83.33
2022-09-07T00:19:51.488Z,83.56
2022-09-07T00:22:19.138Z,83.21
2022-09-07T00:25:43.012Z,83.04
2022-09-07T00:28:11.083Z,83.16
2022-09-07T00:30:43.124Z,83.12
2022-09-07T00:33:12.464Z,83.14
2022-09-07T00:35:43.260Z,83.23
2022-09-07T00:38:10.933Z,83.15
2022-09-07T00:40:38.880Z,83.03
2022-09-07T00:43:07.241Z,83.15
2022-09-07T00:45:34.902Z,83.24
2022-09-07T00:48:05.931Z,83.94
2022-09-07T00:50:38.501Z,84.15
2022-09-07T00:53:11.617Z,83.90
2022-09-07T00:55:41.558Z,84.02
2022-09-07T00:58:10.348Z,84.43
2022-09-07T01:00:38.224Z,84.56
2022-09-07T01:03:06.384Z,85.02
2022-09-07T01:05:40.046Z,84.77
2022-09-07T01:08:09.383Z,84.93
2022-09-07T01:10:37.605Z,85.34
2022-09-07T01:13:05.433Z,85.81
2022-09-07T01:15:44.567Z,86.00
2022-09-07T01:18:22.804Z,86.06
2022-09-07T01:21:19.288Z,86.38
2022-09-07T01:24:17.194Z,86.85
2022-09-07T01:27:21.144Z,86.65
2022-09-07T01:29:57.647Z,86.77
2022-09-07T01:32:35.797Z,87.43
2022-09-07T01:35:11.253Z,87.51
2022-09-07T01:37:46.913Z,87.28
2022-09-07T01:40:20.341Z,87.49
2022-09-07T01:42:55.328Z,87.45
2022-09-07T01:45:28.904Z,87.68
2022-09-07T01:47:59.516Z,88.25
2022-09-07T01:50:32.044Z,88.36
2022-09-07T01:53:07.509Z,88.02
2022-09-07T01:55:40.321Z,88.14
2022-09-07T01:58:13.408Z,87.57
2022-09-07T02:00:47.019Z,88.29
2022-09-07T02:03:16.620Z,88.67
2022-09-07T02:05:47.936Z,88.18
2022-09-07T02:08:20.245Z,88.12
2022-09-07T02:10:52.537Z,88.22
2022-09-07T02:13:25.189Z,88.04
2022-09-07T02:16:00.318Z,88.62
2022-09-07T02:18:30.398Z,88.44
2022-09-07T02:21:00.579Z,88.61
2022-09-07T02:23:33.665Z,88.58
2022-09-07T02:26:04.045Z,88.43
2022-09-07T02:28:34.634Z,88.63
2022-09-07T02:31:03.919Z,88.70
2022-09-07T02:33:32.216Z,88.56
2022-09-07T02:36:01.532Z,88.45
2022-09-07T02:38:29.498Z,88.40
2022-09-07T02:40:59.594Z,88.47
2022-09-07T02:43:30.217Z,88.34
2022-09-07T02:46:25.863Z,88.52
2022-09-07T02:49:05.382Z,88.40
2022-09-07T02:51:41.247Z,87.99
2022-09-07T02:54:28.689Z,87.80
2022-09-07T02:57:07.180Z,87.59
2022-09-07T02:59:46.239Z,87.20
2022-09-07T03:02:23.907Z,87.27
2022-09-07T03:04:59.398Z,87.12
2022-09-07T03:07:35.788Z,87.05
2022-09-07T03:10:05.492Z,86.93
2022-09-07T03:12:41.669Z,86.74
2022-09-07T03:15:12.187Z,86.62
2022-09-07T03:17:42.228Z,86.47
2022-09-07T03:20:10.932Z,86.45
2022-09-07T03:22:39.154Z,86.34
2022-09-07T03:25:08.213Z,86.22
2022-09-07T03:27:35.993Z,86.28
2022-09-07T03:30:04.614Z,86.15
2022-09-07T03:32:33.556Z,86.30
2022-09-07T03:35:03.764Z,86.31
2022-09-07T03:37:31.385Z,86.46
2022-09-07T03:39:59.058Z,86.98
2022-09-07T03:42:26.733Z,86.63
2022-09-07T03:44:54.357Z,86.54
2022-09-07T03:47:21.977Z,86.15
2022-09-07T03:49:51.257Z,86.16
2022-09-07T03:52:20.386Z,86.19
2022-09-07T03:54:48.037Z,86.04
2022-09-07T03:57:15.930Z,85.68
2022-09-07T03:59:43.573Z,85.54
2022-09-07T04:02:11.407Z,85.70
2022-09-07T04:04:39.178Z,86.44
2022-09-07T04:07:06.906Z,86.73
2022-09-07T04:09:36.001Z,86.99
2022-09-07T04:12:04.163Z,87.53
2022-09-07T04:14:31.824Z,88.01
2022-09-07T04:16:59.543Z,87.79
2022-09-07T04:19:27.300Z,87.94
2022-09-07T04:21:54.912Z,88.00
2022-09-07T04:24:22.565Z,88.54
2022-09-07T04:26:52.130Z,88.94
2022-09-07T04:29:19.769Z,89.14
2022-09-07T04:31:47.404Z,89.61
2022-09-07T04:34:15.576Z,89.70
2022-09-07T04:36:43.213Z,90.07
2022-09-07T04:39:12.096Z,89.66
2022-09-07T04:41:39.807Z,89.44
2022-09-07T04:44:08.816Z,89.46
2022-09-07T04:46:37.763Z,89.64
2022-09-07T04:49:08.185Z,89.26
2022-09-07T04:51:36.651Z,89.29
2022-09-07T04:54:05.460Z,89.37
2022-09-07T04:56:33.769Z,89.41
2022-09-07T04:59:02.708Z,89.25
2022-09-07T05:01:31.862Z,88.82
2022-09-07T05:04:01.057Z,88.35
2022-09-07T05:06:29.210Z,88.13
2022-09-07T05:08:57.363Z,88.22
2022-09-07T05:11:29.141Z,88.08
2022-09-07T05:13:58.019Z,88.04
2022-09-07T05:16:26.115Z,87.93
2022-09-07T05:18:57.332Z,87.59
2022-09-07T05:21:27.436Z,87.48
2022-09-07T05:23:56.952Z,87.34
2022-09-07T05:26:26.812Z,86.97
2022-09-07T05:31:42.688Z,86.45
2022-09-07T05:36:59.381Z,86.20
2022-09-07T05:39:27.583Z,85.71
2022-09-07T05:41:55.246Z,85.63
2022-09-07T05:47:10.863Z,85.10
2022-09-07T05:49:39.869Z,84.98
2022-09-07T05:52:07.574Z,84.73
2022-09-07T05:54:35.232Z,85.11
2022-09-07T05:57:03.455Z,84.93
2022-09-07T05:59:31.123Z,84.61
2022-09-07T06:01:58.870Z,83.66
2022-09-07T06:04:26.793Z,83.36
2022-09-07T06:07:21.512Z,82.88
2022-09-07T06:12:31.193Z,83.47
2022-09-07T06:15:00.916Z,83.16
2022-09-07T06:17:29.663Z,82.07
2022-09-07T06:19:57.293Z,82.08
2022-09-07T06:22:30.582Z,80.47
2022-09-07T06:24:58.736Z,79.80
2022-09-07T06:27:26.388Z,80.16
2022-09-07T06:29:54.009Z,79.99
2022-09-07T06:35:10.541Z,78.79
2022-09-07T06:37:39.691Z,77.40
2022-09-07T06:40:10.371Z,77.21
2022-09-07T06:42:38.156Z,77.01
2022-09-07T06:45:06.847Z,76.31
2022-09-07T06:47:34.627Z,77.01
2022-09-07T06:50:02.294Z,76.16
2022-09-07T06:55:19.112Z,74.43
2022-09-07T06:57:46.786Z,74.74
2022-09-07T07:00:15.285Z,74.79
2022-09-07T07:02:42.927Z,74.19
2022-09-07T07:05:11.037Z,74.08
2022-09-07T07:07:38.716Z,73.52
2022-09-07T07:10:07.160Z,73.02
2022-09-07T07:15:02.828Z,71.97
2022-09-07T07:17:30.449Z,71.69
2022-09-07T07:19:58.126Z,70.62
2022-09-07T07:25:13.433Z,70.61
2022-09-07T07:27:42.424Z,69.77
2022-09-07T07:30:10.990Z,69.69
2022-09-07T07:32:38.835Z,70.22
2022-09-07T07:35:08.752Z,70.51
2022-09-07T07:37:37.056Z,71.05
2022-09-07T07:40:22.771Z,71.28
2022-09-07T07:42:54.457Z,70.95
2022-09-07T07:48:12.644Z,70.83
2022-09-07T07:50:40.228Z,70.97
2022-09-07T07:55:58.313Z,71.26
2022-09-07T07:58:27.972Z,71.45
2022-09-07T08:00:56.757Z,71.73
2022-09-07T08:03:25.950Z,70.96
2022-09-07T08:05:53.858Z,70.96
2022-09-07T08:08:22.915Z,70.39
2022-09-07T08:10:50.689Z,70.77
2022-09-07T08:13:19.056Z,71.34
2022-09-07T08:15:48.031Z,71.65
2022-09-07T08:18:17.091Z,71.17
2022-09-07T08:20:44.838Z,71.80
2022-09-07T08:23:12.363Z,71.83
2022-09-07T08:25:40.012Z,70.71
2022-09-07T08:28:07.534Z,70.89
2022-09-07T08:30:35.044Z,71.31
2022-09-07T08:33:03.939Z,70.71
2022-09-07T08:35:31.434Z,70.78
2022-09-07T08:37:58.943Z,72.31
2022-09-07T08:40:26.450Z,73.50
2022-09-07T08:43:09.013Z,74.34
2022-09-07T08:45:40.816Z,74.44
2022-09-07T08:48:15.068Z,74.85
2022-09-07T08:50:53.220Z,75.81
2022-09-07T08:53:22.315Z,76.71
2022-09-07T08:55:53.832Z,76.91
2022-09-07T08:58:48.337Z,77.08
2022-09-07T09:04:21.439Z,78.04
2022-09-07T09:07:08.893Z,78.43
2022-09-07T09:09:58.837Z,78.42
2022-09-07T09:12:37.527Z,79.71
2022-09-07T09:15:15.992Z,80.66
2022-09-07T09:17:48.491Z,80.99
2022-09-07T09:20:24.218Z,82.13
2022-09-07T09:22:52.685Z,80.41
2022-09-07T09:25:22.492Z,79.44
2022-09-07T09:27:50.645Z,78.52
2022-09-07T09:30:20.120Z,78.09
2022-09-07T09:32:50.052Z,77.79
2022-09-07T09:35:28.101Z,78.67
2022-09-07T09:37:57.513Z,77.69
2022-09-07T09:40:28.284Z,77.97
2022-09-07T09:43:01.746Z,77.69
2022-09-07T09:46:12.256Z,78.15
2022-09-07T09:48:22.591Z,78.76
2022-09-07T09:53:54.298Z,82.57
2022-09-07T09:56:22.780Z,83.04
2022-09-07T09:59:56.064Z,83.64
2022-09-07T10:04:32.976Z,87.21
2022-09-07T10:07:09.803Z,87.00
2022-09-07T10:09:40.411Z,87.16
2022-09-07T10:12:21.535Z,87.21
2022-09-07T10:14:49.307Z,88.60
2022-09-07T10:17:24.442Z,87.67
2022-09-07T10:19:52.565Z,86.78
2022-09-07T10:22:30.748Z,86.75
2022-09-07T10:24:58.567Z,87.63
2022-09-07T10:27:31.698Z,86.94
2022-09-07T10:29:59.834Z,87.03
2022-09-07T10:32:43.169Z,86.13
2022-09-07T10:35:18.948Z,86.67
2022-09-07T10:37:54.517Z,83.53
2022-09-07T10:40:29.930Z,83.75
2022-09-07T10:43:22.801Z,82.21
2022-09-07T10:46:55.871Z,80.73
2022-09-07T10:49:13.479Z,80.93
2022-09-07T10:51:47.826Z,80.55
2022-09-07T10:54:30.269Z,81.36
2022-09-07T10:57:06.507Z,80.59
2022-09-07T11:05:50.581Z,81.38
2022-09-07T11:08:34.330Z,82.11
2022-09-07T11:14:20.034Z,83.73
2022-09-07T11:16:53.502Z,84.02
2022-09-07T11:19:42.295Z,84.17
2022-09-07T11:22:23.694Z,85.92
2022-09-07T11:27:51.234Z,88.10
2022-09-07T11:30:22.806Z,88.12
2022-09-07T11:32:57.308Z,88.22
2022-09-07T11:35:32.901Z,87.44
2022-09-07T11:38:06.277Z,85.94
2022-09-07T11:40:37.177Z,85.98
2022-09-07T11:43:17.834Z,84.20
2022-09-07T11:45:50.354Z,83.48
2022-09-07T11:48:22.290Z,83.74
2022-09-07T11:50:53.148Z,81.67
2022-09-07T11:53:25.653Z,80.59
2022-09-07T11:55:58.398Z,80.61
2022-09-07T11:58:44.191Z,80.68
2022-09-07T12:01:25.341Z,82.92
2022-09-07T12:04:24.737Z,79.30
2022-09-07T12:07:08.751Z,79.71
2022-09-07T12:09:50.149Z,79.14
2022-09-07T12:12:42.035Z,78.01
2022-09-07T12:15:24.347Z,77.19
2022-09-07T12:18:07.506Z,74.58
2022-09-07T12:20:41.150Z,74.72
2022-09-07T12:23:23.084Z,72.42
2022-09-07T12:25:51.960Z,72.89
2022-09-07T12:28:58.117Z,70.85
2022-09-07T12:34:51.640Z,73.59
2022-09-07T12:37:41.661Z,73.96
2022-09-07T12:40:57.737Z,74.00
2022-09-07T12:43:53.841Z,75.64
2022-09-07T12:46:44.853Z,76.20
2022-09-07T12:49:45.159Z,76.25
2022-09-07T12:52:37.649Z,76.66
2022-09-07T12:55:27.875Z,75.28
2022-09-07T12:58:10.553Z,75.86
2022-09-07T13:00:54.833Z,76.30
2022-09-07T13:03:56.629Z,75.96
2022-09-07T13:09:32.029Z,76.47
2022-09-07T13:12:00.894Z,76.04
2022-09-07T13:14:30.278Z,74.09
2022-09-07T13:17:28.715Z,72.91
2022-09-07T13:20:29.987Z,72.50
2022-09-07T13:23:19.813Z,71.47
2022-09-07T13:25:57.416Z,71.81
2022-09-07T13:28:37.306Z,71.91
2022-09-07T13:31:24.622Z,70.58
2022-09-07T13:33:53.064Z,71.35
2022-09-07T13:36:25.542Z,69.83
2022-09-07T13:38:54.868Z,70.20
2022-09-07T13:41:27.588Z,68.64
2022-09-07T13:44:01.746Z,68.64
2022-09-07T13:46:44.445Z,67.11
2022-09-07T13:49:24.797Z,67.82
2022-09-07T13:51:59.790Z,67.21
2022-09-07T13:54:39.559Z,66.64
2022-09-07T13:57:18.444Z,64.78
2022-09-07T13:59:49.798Z,65.18
2022-09-07T14:02:23.687Z,64.84
2022-09-07T14:04:52.813Z,65.04
2022-09-07T14:07:23.068Z,65.03
2022-09-07T14:10:05.341Z,64.71
2022-09-07T14:12:43.415Z,65.87
2022-09-07T14:15:20.990Z,66.59
2022-09-07T14:17:49.073Z,66.71
2022-09-07T14:20:18.640Z,67.45
2022-09-07T14:22:50.625Z,68.71
2022-09-07T14:25:22.163Z,68.68
2022-09-07T14:27:51.194Z,69.25
2022-09-07T14:30:25.872Z,69.55
2022-09-07T14:32:55.281Z,69.59
2022-09-07T14:35:25.486Z,68.88
2022-09-07T14:37:54.007Z,69.26
2022-09-07T14:40:23.810Z,68.04
2022-09-07T14:42:55.184Z,67.08
2022-09-07T14:45:34.507Z,65.87
2022-09-07T14:48:13.305Z,65.88
2022-09-07T14:50:43.254Z,66.24
2022-09-07T14:56:10.829Z,67.46
2022-09-07T14:58:39.692Z,65.93
2022-09-07T15:04:18.788Z,65.12
2022-09-07T15:07:02.320Z,65.17
2022-09-07T15:09:35.944Z,65.22
2022-09-07T15:12:06.387Z,64.25
2022-09-07T15:14:36.255Z,64.50
2022-09-07T15:19:51.661Z,65.20
2022-09-07T15:22:21.424Z,65.15
2022-09-07T15:24:49.200Z,64.88
2022-09-07T15:27:20.784Z,65.71
2022-09-07T15:29:49.620Z,67.30
2022-09-07T15:32:18.190Z,66.88
2022-09-07T15:34:45.994Z,67.65
2022-09-07T15:40:01.882Z,68.29
2022-09-07T15:45:19.014Z,69.30
2022-09-07T15:47:52.047Z,69.30
2022-09-07T15:50:23.101Z,69.90
2022-09-07T15:52:50.960Z,70.47
2022-09-07T15:55:18.604Z,70.70
2022-09-07T15:57:54.479Z,70.83
2022-09-07T16:00:29.046Z,70.99
2022-09-07T16:03:12.165Z,71.14
2022-09-07T16:05:41.476Z,72.01
2022-09-07T16:11:05.246Z,71.95
2022-09-07T16:13:33.458Z,73.10
2022-09-07T16:16:06.130Z,73.84
2022-09-07T16:18:34.779Z,73.40
2022-09-07T16:21:06.017Z,73.35
2022-09-07T16:23:33.576Z,74.77
2022-09-07T16:26:04.115Z,75.27
2022-09-07T16:28:32.201Z,76.79
2022-09-07T16:30:59.853Z,77.14
2022-09-07T16:33:36.089Z,77.32
2022-09-07T16:36:06.489Z,78.45
2022-09-07T16:38:50.122Z,78.44
2022-09-07T16:41:20.728Z,77.55
2022-09-07T16:43:48.415Z,77.93
2022-09-07T16:46:18.193Z,76.96
2022-09-07T16:48:47.598Z,77.46
2022-09-07T16:51:18.675Z,78.15
2022-09-07T16:53:46.422Z,78.77
2022-09-07T16:56:17.035Z,78.51
2022-09-07T16:58:46.545Z,78.03
2022-09-07T17:01:17.866Z,77.88
2022-09-07T17:03:49.261Z,76.58
2022-09-07T17:06:18.118Z,77.32
2022-09-07T17:08:45.653Z,76.94
2022-09-07T17:11:15.696Z,77.04
2022-09-07T17:13:43.959Z,77.34
2022-09-07T17:16:13.436Z,77.86
2022-09-07T17:21:33.292Z,79.57
2022-09-07T17:24:04.170Z,79.56
2022-09-07T17:26:32.956Z,79.60
2022-09-07T17:29:01.323Z,80.55
2022-09-07T17:34:18.515Z,82.32
2022-09-07T17:36:47.677Z,83.07
2022-09-07T17:39:17.745Z,83.35
2022-09-07T17:41:47.095Z,84.01
2022-09-07T17:44:14.628Z,84.58
2022-09-07T17:46:42.215Z,85.92
2022-09-07T17:49:12.223Z,86.06
2022-09-07T17:51:40.211Z,85.92
2022-09-07T17:54:12.788Z,86.54
2022-09-07T17:56:41.683Z,87.90
2022-09-07T18:01:57.534Z,89.19
2022-09-07T18:04:25.471Z,89.23
2022-09-07T18:06:54.393Z,89.68
2022-09-07T18:09:23.361Z,90.52
2022-09-07T18:11:51.287Z,91.46
2022-09-07T18:14:19.588Z,93.03
2022-09-07T18:16:49.817Z,93.99
2022-09-07T18:19:18.649Z,95.67
2022-09-07T18:21:47.711Z,96.61
2022-09-07T18:24:17.629Z,98.03
2022-09-07T18:26:52.441Z,97.94
2022-09-07T18:29:32.379Z,99.23
2022-09-07T18:32:02.331Z,100.00
2022-09-07T18:34:30.665Z,100.00
2022-09-07T18:36:59.107Z,100.00
2022-09-07T18:39:26.799Z,100.00
2022-09-07T18:41:56.509Z,100.00
2022-09-07T18:47:21.102Z,100.00
2022-09-07T18:49:49.753Z,100.00
2022-09-07T18:55:09.778Z,100.00
2022-09-07T18:57:41.541Z,100.00
2022-09-07T19:00:12.004Z,100.00
2022-09-07T19:02:39.620Z,100.00
2022-09-07T19:07:56.562Z,100.00
2022-09-07T19:10:24.197Z,100.00
2022-09-07T19:12:53.100Z,100.00
2022-09-07T19:15:22.447Z,100.00
2022-09-07T19:17:50.250Z,100.00
2022-09-07T19:20:18.383Z,100.00
2022-09-07T19:22:46.315Z,100.00
2022-09-07T19:25:13.869Z,100.00
2022-09-07T19:27:41.397Z,100.00
2022-09-07T19:30:11.508Z,100.00
2022-09-07T19:32:39.015Z,100.00
2022-09-07T19:35:07.095Z,100.00
2022-09-07T19:37:34.708Z,100.00
2022-09-07T19:40:02.530Z,100.00
2022-09-07T19:42:30.406Z,100.00
2022-09-07T19:44:57.947Z,100.00
2022-09-07T19:47:29.137Z,100.00
2022-09-07T19:49:56.928Z,100.00
2022-09-07T19:52:24.501Z,100.00
2022-09-07T19:54:52.093Z,100.00
2022-09-07T19:57:19.800Z,100.00
2022-09-07T19:59:47.404Z,100.00
2022-09-07T20:02:14.938Z,100.00
2022-09-07T20:04:43.888Z,100.00
2022-09-07T20:07:12.696Z,100.00
2022-09-07T20:09:40.208Z,100.00
2022-09-07T20:12:08.973Z,100.00
2022-09-07T20:14:36.901Z,100.00
2022-09-07T20:17:04.464Z,100.00
2022-09-07T20:19:31.973Z,100.00
2022-09-07T20:22:00.889Z,100.00
2022-09-07T20:24:28.400Z,100.00
2022-09-07T20:26:55.917Z,100.00
2022-09-07T20:29:27.900Z,100.00
2022-09-07T20:31:56.705Z,100.00
2022-09-07T20:34:24.374Z,100.00
2022-09-07T20:36:52.254Z,100.00
2022-09-07T20:39:22.074Z,100.00
2022-09-07T20:41:49.688Z,100.00
2022-09-07T20:44:17.664Z,100.00
2022-09-07T20:46:45.477Z,100.00
2022-09-07T20:49:13.028Z,100.00
2022-09-07T20:51:40.971Z,100.00
2022-09-07T20:54:08.581Z,100.00
2022-09-07T20:56:37.437Z,100.00
2022-09-07T20:59:05.219Z,100.00
2022-09-07T21:01:34.990Z,100.00
2022-09-07T21:04:03.873Z,100.00
2022-09-07T21:06:32.805Z,100.00
2022-09-07T21:09:00.783Z,100.00
2022-09-07T21:11:31.033Z,100.00
2022-09-07T21:14:01.324Z,100.00
2022-09-07T21:16:29.339Z,100.00
2022-09-07T21:19:00.776Z,100.00
2022-09-07T21:21:30.114Z,100.00
2022-09-07T21:23:59.660Z,100.00
2022-09-07T21:26:28.416Z,100.00
2022-09-07T21:28:57.026Z,100.00
2022-09-07T21:31:26.479Z,100.00
2022-09-07T21:33:55.417Z,100.00
2022-09-07T21:36:23.941Z,100.00
2022-09-07T21:38:51.634Z,100.00
2022-09-07T21:41:21.416Z,100.00
2022-09-07T21:43:49.069Z,100.00
2022-09-07T21:46:18.540Z,100.00
2022-09-07T21:48:47.473Z,100.00
2022-09-07T21:51:15.228Z,100.00
2022-09-07T21:53:43.485Z,100.00
2022-09-07T21:56:12.869Z,100.00
2022-09-07T21:58:40.895Z,100.00
2022-09-07T22:01:13.264Z,100.00
2022-09-07T22:03:41.695Z,100.00
2022-09-07T22:06:11.357Z,100.00
2022-09-07T22:08:41.157Z,100.00
2022-09-07T22:11:10.668Z,100.00
2022-09-07T22:13:38.697Z,100.00
2022-09-07T22:16:07.269Z,100.00
2022-09-07T22:18:36.760Z,100.00
2022-09-07T22:21:06.840Z,100.00
2022-09-07T22:23:39.646Z,100.00
2022-09-07T22:26:08.108Z,100.00
2022-09-07T22:28:36.544Z,100.00
2022-09-07T22:31:12.480Z,100.00
2022-09-07T22:33:40.925Z,100.00
2022-09-07T22:36:13.622Z,100.00
2022-09-07T22:38:43.853Z,100.00
2022-09-07T22:41:13.704Z,100.00
2022-09-07T22:43:41.287Z,100.00
2022-09-07T22:46:09.067Z,100.00
2022-09-07T22:48:36.784Z,100.00
2022-09-07T22:51:05.792Z,100.00
2022-09-07T22:53:35.474Z,100.00
2022-09-07T22:56:08.877Z,100.00
2022-09-07T22:58:37.137Z,100.00
2022-09-07T23:01:05.978Z,100.00
2022-09-07T23:03:35.440Z,100.00
2022-09-07T23:06:03.489Z,100.00
2022-09-07T23:08:31.472Z,100.00
2022-09-07T23:11:04.862Z,100.00
2022-09-07T23:13:34.266Z,100.00
2022-09-07T23:16:06.048Z,100.00
2022-09-07T23:18:34.646Z,100.00
2022-09-07T23:21:02.871Z,100.00
2022-09-07T23:23:30.896Z,100.00
2022-09-07T23:26:01.744Z,100.00
2022-09-07T23:28:29.918Z,100.00
2022-09-07T23:30:59.926Z,100.00
2022-09-07T23:33:28.271Z,100.00
2022-09-07T23:35:57.494Z,100.00
2022-09-07T23:38:25.915Z,100.00
2022-09-07T23:40:54.482Z,100.00
2022-09-07T23:43:22.085Z,100.00
2022-09-07T23:45:49.633Z,100.00
2022-09-07T23:48:18.507Z,100.00
2022-09-07T23:50:46.497Z,100.00
2022-09-07T23:53:14.610Z,100.00
2022-09-07T23:55:42.613Z,100.00
2022-09-07T23:58:10.676Z,100.00
